Time;durP1;ratioP1;P1;durP2;ratioP2;P2;SDS_P1;SDS_P2;PMS_P1;PMS_P2;Temp;Humidity;BMP_temperature;BMP_pressure;BME280_temperature;BME280_humidity;BME280_pressure;Samples;Min_cycle;Max_cycle;Signal;HPM_P1;HPM_P2
2021/03/01 00:00:52;;;;;;;10.68;7.82;;;3.70;99.90;;;;;;5031078;28;20549;-70
2021/03/01 00:03:19;;;;;;;6.32;4.75;;;3.70;99.90;;;;;;5031247;28;20193;-70
2021/03/01 00:05:46;;;;;;;8.10;5.38;;;3.70;99.90;;;;;;5031327;28;20209;-71
2021/03/01 00:08:13;;;;;;;8.88;5.32;;;3.90;99.90;;;;;;5033166;28;20192;-72
2021/03/01 00:10:40;;;;;;;11.20;6.90;;;4.00;99.90;;;;;;5034817;28;20177;-69
2021/03/01 00:13:08;;;;;;;10.85;7.20;;;4.10;99.90;;;;;;5034117;28;20184;-72
2021/03/01 00:15:35;;;;;;;9.35;6.13;;;4.00;99.90;;;;;;5033881;28;20210;-72
2021/03/01 00:18:03;;;;;;;8.13;5.18;;;4.10;99.90;;;;;;5033887;28;20276;-70
2021/03/01 00:20:31;;;;;;;9.75;5.88;;;4.20;99.90;;;;;;5033705;28;20706;-71
2021/03/01 00:22:59;;;;;;;9.85;6.63;;;4.30;99.90;;;;;;5033739;28;20225;-68
2021/03/01 00:25:26;;;;;;;11.88;6.35;;;4.20;99.90;;;;;;5033715;28;20177;-72
2021/03/01 00:27:53;;;;;;;6.88;4.80;;;4.20;99.90;;;;;;5033959;28;20308;-70
2021/03/01 00:30:23;;;;;;;14.70;5.15;;;4.30;99.90;;;;;;5015906;28;20194;-73
2021/03/01 00:32:50;;;;;;;9.25;6.78;;;4.30;99.90;;;;;;5033708;28;20178;-70
2021/03/01 00:35:17;;;;;;;8.43;6.68;;;4.30;99.90;;;;;;5016181;28;20202;-70
2021/03/01 00:37:44;;;;;;;17.73;6.15;;;4.20;99.90;;;;;;5034348;28;20194;-71
2021/03/01 00:40:11;;;;;;;7.70;5.55;;;4.20;99.90;;;;;;5033797;28;20189;-69
2021/03/01 00:42:39;;;;;;;11.40;5.40;;;4.40;99.90;;;;;;5034236;28;20214;-71
2021/03/01 00:45:08;;;;;;;9.45;6.72;;;4.40;99.90;;;;;;5034793;28;20174;-69
2021/03/01 00:47:36;;;;;;;5.88;4.25;;;4.50;99.90;;;;;;5035094;28;20209;-70
2021/03/01 00:50:04;;;;;;;8.93;6.03;;;4.40;99.90;;;;;;5034555;28;20192;-69
2021/03/01 00:52:31;;;;;;;9.57;5.78;;;4.50;99.90;;;;;;5036053;28;20216;-69
2021/03/01 00:54:59;;;;;;;10.98;5.47;;;4.50;99.90;;;;;;5018503;28;20303;-70
2021/03/01 00:57:26;;;;;;;10.73;6.40;;;4.50;99.90;;;;;;5017345;28;20217;-71
2021/03/01 00:59:53;;;;;;;8.77;5.38;;;4.40;99.90;;;;;;5033440;28;20197;-69
2021/03/01 01:02:21;;;;;;;17.80;5.75;;;4.30;99.90;;;;;;5015210;28;20209;-71
2021/03/01 01:05:12;;;;;;;10.50;6.32;;;4.20;99.90;;;;;;5015466;28;20283;-70
2021/03/01 01:07:40;;;;;;;10.20;6.13;;;4.20;99.90;;;;;;5033181;28;20189;-71
2021/03/01 01:10:08;;;;;;;13.80;5.97;;;4.20;99.90;;;;;;5033003;28;20170;-70
2021/03/01 01:12:36;;;;;;;10.68;6.30;;;4.20;99.90;;;;;;5032969;28;20713;-70
2021/03/01 01:15:06;;;;;;;7.63;5.70;;;4.20;99.90;;;;;;5015266;28;20193;-70
2021/03/01 01:17:33;;;;;;;7.22;5.05;;;4.20;99.90;;;;;;5032687;28;20296;-70
2021/03/01 01:20:01;;;;;;;7.75;5.53;;;4.20;99.90;;;;;;5032148;28;20531;-70
2021/03/01 01:22:28;;;;;;;6.85;5.90;;;4.30;99.90;;;;;;5032059;28;20212;-70
2021/03/01 01:24:55;;;;;;;8.13;4.72;;;4.30;99.90;;;;;;5032528;28;20180;-70
2021/03/01 01:27:23;;;;;;;7.38;4.53;;;4.20;99.90;;;;;;5014388;28;20224;-70
2021/03/01 01:29:50;;;;;;;10.70;4.93;;;4.20;99.90;;;;;;5032334;28;20186;-71
2021/03/01 01:32:17;;;;;;;16.00;7.13;;;4.30;99.90;;;;;;5014264;28;20198;-70
2021/03/01 01:34:44;;;;;;;7.28;4.88;;;4.30;99.90;;;;;;5032713;28;20290;-71
2021/03/01 01:37:11;;;;;;;9.50;6.22;;;4.30;99.90;;;;;;5032332;28;20240;-71
2021/03/01 01:39:39;;;;;;;10.00;5.82;;;4.30;99.90;;;;;;5031994;28;20200;-70
2021/03/01 01:42:06;;;;;;;7.25;5.65;;;4.30;99.90;;;;;;5032112;28;20300;-69
2021/03/01 01:44:33;;;;;;;9.75;6.72;;;4.30;99.90;;;;;;5032190;28;20239;-71
2021/03/01 01:47:01;;;;;;;8.45;5.22;;;4.20;99.90;;;;;;5031968;28;20727;-69
2021/03/01 01:49:28;;;;;;;12.48;6.05;;;4.20;99.90;;;;;;5031999;28;20189;-70
2021/03/01 01:51:55;;;;;;;12.77;7.72;;;4.20;99.90;;;;;;5032204;28;20593;-70
2021/03/01 01:54:23;;;;;;;7.07;5.43;;;4.20;99.90;;;;;;5032416;28;20185;-69
2021/03/01 01:56:51;;;;;;;6.47;4.72;;;4.20;99.90;;;;;;5031856;28;20702;-68
2021/03/01 01:59:18;;;;;;;5.97;4.60;;;4.20;99.90;;;;;;5031594;28;20205;-70
2021/03/01 02:01:46;;;;;;;7.32;5.53;;;4.10;99.90;;;;;;5031429;28;20223;-69
2021/03/01 02:04:21;;;;;;;5.72;4.00;;;4.10;99.90;;;;;;5031683;28;20177;-69
2021/03/01 02:06:57;;;;;;;8.20;5.72;;;4.00;99.90;;;;;;5031763;28;20299;-70
2021/03/01 02:10:02;;;;;;;8.88;5.95;;;4.00;99.90;;;;;;5031724;28;20239;-71
2021/03/01 02:12:40;;;;;;;8.98;5.57;;;4.00;99.90;;;;;;5031551;28;20732;-69
2021/03/01 02:15:10;;;;;;;9.07;4.93;;;4.00;99.90;;;;;;5031314;28;20661;-71
2021/03/01 02:17:38;;;;;;;13.82;7.50;;;4.00;99.90;;;;;;5013844;28;20815;-70
2021/03/01 02:20:11;;;;;;;5.53;3.83;;;4.00;99.90;;;;;;5013591;28;20565;-71
2021/03/01 02:22:39;;;;;;;8.32;6.00;;;4.00;99.90;;;;;;5031095;28;20209;-69
2021/03/01 02:25:09;;;;;;;6.95;4.25;;;4.00;99.90;;;;;;5031443;28;20185;-70
2021/03/01 02:27:41;;;;;;;13.82;5.88;;;4.00;99.90;;;;;;5031196;28;20205;-72
2021/03/01 02:30:13;;;;;;;8.90;6.30;;;4.00;99.90;;;;;;5030385;28;20212;-70
2021/03/01 02:32:41;;;;;;;8.10;5.32;;;3.90;99.90;;;;;;5030940;28;20217;-70
2021/03/01 02:35:12;;;;;;;10.90;6.10;;;3.90;99.90;;;;;;5030908;28;20196;-70
2021/03/01 02:37:41;;;;;;;14.82;7.97;;;3.90;99.90;;;;;;5030745;28;20170;-70
2021/03/01 02:40:09;;;;;;;6.15;4.60;;;4.00;99.90;;;;;;5030687;28;20181;-70
2021/03/01 02:42:39;;;;;;;12.30;5.72;;;4.10;99.90;;;;;;5030703;28;20528;-70
2021/03/01 02:45:07;;;;;;;13.00;5.25;;;4.00;99.90;;;;;;5030655;28;20182;-69
2021/03/01 02:47:35;;;;;;;9.40;5.30;;;4.10;99.90;;;;;;5012687;28;20231;-69
2021/03/01 02:50:04;;;;;;;11.35;6.90;;;4.10;99.90;;;;;;5030631;28;20199;-70
2021/03/01 02:52:32;;;;;;;11.35;7.10;;;4.10;99.90;;;;;;5030669;28;20172;-71
2021/03/01 02:55:01;;;;;;;12.40;7.03;;;4.10;99.90;;;;;;5013038;28;20217;-69
2021/03/01 02:57:30;;;;;;;9.27;6.20;;;4.20;99.90;;;;;;5030322;28;20682;-69
2021/03/01 02:59:58;;;;;;;21.63;8.23;;;4.20;99.90;;;;;;5030341;28;20257;-70
2021/03/01 03:02:28;;;;;;;13.20;7.00;;;4.20;99.90;;;;;;5030381;28;20673;-72
2021/03/01 03:04:57;;;;;;;15.23;7.43;;;4.20;99.90;;;;;;5030515;28;20177;-72
2021/03/01 03:07:24;;;;;;;11.38;5.90;;;4.30;99.90;;;;;;5030398;28;20205;-70
2021/03/01 03:09:52;;;;;;;6.70;5.03;;;4.20;99.90;;;;;;5030721;28;20211;-70
2021/03/01 03:12:20;;;;;;;14.43;6.15;;;4.20;99.90;;;;;;5031037;28;20181;-69
2021/03/01 03:14:47;;;;;;;15.60;7.32;;;4.20;99.90;;;;;;5030532;28;20169;-68
2021/03/01 03:17:18;;;;;;;8.70;5.22;;;4.20;99.90;;;;;;5030725;28;20292;-71
2021/03/01 03:19:46;;;;;;;9.75;6.75;;;4.20;99.90;;;;;;5031150;28;20186;-71
2021/03/01 03:22:14;;;;;;;8.40;5.35;;;4.20;99.90;;;;;;5013575;28;20726;-70
2021/03/01 03:24:41;;;;;;;7.85;5.38;;;4.30;99.90;;;;;;5031164;28;20193;-70
2021/03/01 03:27:08;;;;;;;9.07;7.20;;;4.20;99.90;;;;;;5031082;28;20213;-70
2021/03/01 03:29:36;;;;;;;11.90;5.78;;;4.30;99.90;;;;;;5030154;28;20182;-70
2021/03/01 03:32:03;;;;;;;15.30;6.72;;;4.20;99.90;;;;;;5030735;28;20181;-70
2021/03/01 03:34:31;;;;;;;16.45;7.38;;;4.20;99.90;;;;;;5030252;28;20174;-69
2021/03/01 03:37:05;;;;;;;12.88;6.60;;;4.20;99.90;;;;;;5012445;28;20213;-70
2021/03/01 03:39:35;;;;;;;14.13;6.80;;;4.10;99.90;;;;;;5030192;28;20657;-70
2021/03/01 03:42:04;;;;;;;11.80;7.22;;;4.10;99.90;;;;;;5030605;28;20292;-70
2021/03/01 03:44:32;;;;;;;10.18;6.18;;;4.00;99.90;;;;;;5016357;28;20257;-71
2021/03/01 03:47:01;;;;;;;8.85;6.53;;;4.00;99.90;;;;;;5034306;28;20209;-71
2021/03/01 03:49:29;;;;;;;14.13;8.18;;;4.00;99.90;;;;;;5034177;28;20240;-71
2021/03/01 03:51:58;;;;;;;8.20;5.80;;;4.00;99.90;;;;;;5033898;28;20178;-70
2021/03/01 03:54:29;;;;;;;9.80;7.10;;;4.00;99.90;;;;;;5033982;28;20561;-69
2021/03/01 03:56:58;;;;;;;18.15;8.63;;;4.00;99.90;;;;;;5033752;28;20205;-70
2021/03/01 03:59:28;;;;;;;20.98;7.00;;;4.00;99.90;;;;;;5033976;28;20196;-69
2021/03/01 04:01:57;;;;;;;15.57;7.75;;;4.00;99.90;;;;;;5033883;28;20193;-69
2021/03/01 04:04:27;;;;;;;10.10;8.07;;;4.10;99.90;;;;;;5033939;28;20327;-69
2021/03/01 04:06:57;;;;;;;16.02;5.97;;;4.10;99.90;;;;;;5015941;28;20225;-69
2021/03/01 04:09:26;;;;;;;9.68;6.15;;;4.10;99.90;;;;;;5034119;28;20180;-69
2021/03/01 04:11:55;;;;;;;14.27;8.20;;;4.10;99.90;;;;;;5034132;28;20236;-69
2021/03/01 04:14:25;;;;;;;13.07;8.35;;;4.00;99.90;;;;;;5034225;28;20185;-68
2021/03/01 04:16:56;;;;;;;13.80;6.28;;;4.20;99.90;;;;;;5034127;28;20204;-70
2021/03/01 04:19:28;;;;;;;10.43;5.97;;;4.10;99.90;;;;;;5016963;28;20239;-71
2021/03/01 04:21:58;;;;;;;11.23;6.03;;;4.10;99.90;;;;;;5033502;28;20300;-69
2021/03/01 04:24:27;;;;;;;14.05;7.85;;;4.10;99.90;;;;;;5034124;28;20194;-69
2021/03/01 04:26:55;;;;;;;10.85;8.13;;;4.10;99.90;;;;;;5033603;28;20220;-68
2021/03/01 04:29:23;;;;;;;21.05;8.18;;;4.10;99.90;;;;;;5015805;28;20205;-69
2021/03/01 04:31:50;;;;;;;12.13;8.40;;;4.00;99.90;;;;;;5033730;28;20173;-71
2021/03/01 04:34:20;;;;;;;11.25;6.88;;;4.20;99.90;;;;;;5033882;28;20192;-71
2021/03/01 04:36:48;;;;;;;10.27;5.78;;;4.20;99.90;;;;;;5015246;28;20520;-70
2021/03/01 04:39:16;;;;;;;12.10;7.22;;;4.10;99.90;;;;;;5033005;28;20185;-70
2021/03/01 04:41:44;;;;;;;8.57;6.22;;;4.10;99.90;;;;;;5032781;28;20209;-69
2021/03/01 04:44:14;;;;;;;9.65;6.80;;;4.10;99.90;;;;;;5033202;28;20181;-72
2021/03/01 04:46:43;;;;;;;15.95;8.85;;;4.10;99.90;;;;;;5032858;28;20213;-72
2021/03/01 04:49:11;;;;;;;11.73;7.30;;;4.10;99.90;;;;;;5033073;28;20308;-69
2021/03/01 04:51:40;;;;;;;10.07;5.90;;;4.10;99.90;;;;;;5034056;28;20227;-68
2021/03/01 04:54:10;;;;;;;12.05;7.03;;;4.30;99.90;;;;;;5032399;28;20200;-70
2021/03/01 04:56:42;;;;;;;13.98;8.85;;;4.20;99.90;;;;;;5032413;28;20244;-70
2021/03/01 04:59:11;;;;;;;16.15;9.77;;;4.20;99.90;;;;;;5032404;28;20184;-71
2021/03/01 05:01:40;;;;;;;11.73;5.85;;;4.10;99.90;;;;;;5032670;28;20204;-70
2021/03/01 05:04:09;;;;;;;13.45;6.70;;;4.10;99.90;;;;;;5032536;28;20193;-72
2021/03/01 05:06:36;;;;;;;14.88;7.07;;;4.00;99.90;;;;;;5032365;28;20618;-71
2021/03/01 05:09:05;;;;;;;15.00;9.07;;;4.10;99.90;;;;;;5032328;28;20189;-69
2021/03/01 05:11:35;;;;;;;14.27;7.03;;;4.10;99.90;;;;;;5032595;28;20625;-72
2021/03/01 05:14:03;;;;;;;14.40;7.30;;;4.10;99.90;;;;;;5033197;28;20178;-72
2021/03/01 05:16:31;;;;;;;15.45;7.78;;;4.10;99.90;;;;;;5032229;28;20209;-70
2021/03/01 05:18:59;;;;;;;18.65;8.52;;;4.20;99.90;;;;;;5032418;28;20240;-70
2021/03/01 05:21:28;;;;;;;12.93;6.72;;;4.20;99.90;;;;;;5032259;28;20180;-72
2021/03/01 05:23:55;;;;;;;22.15;10.73;;;4.30;99.90;;;;;;5032074;28;20173;-68
2021/03/01 05:26:23;;;;;;;11.52;6.00;;;4.20;99.90;;;;;;5031912;28;20209;-70
2021/03/01 05:28:51;;;;;;;12.38;6.15;;;4.30;99.90;;;;;;5014313;28;20189;-69
2021/03/01 05:31:18;;;;;;;11.65;8.20;;;4.20;99.90;;;;;;5031832;28;20202;-69
2021/03/01 05:33:45;;;;;;;12.68;7.82;;;4.20;99.90;;;;;;5014571;28;20240;-69
2021/03/01 05:36:13;;;;;;;12.13;8.68;;;4.10;99.90;;;;;;5032038;28;20210;-71
2021/03/01 05:38:40;;;;;;;12.27;7.30;;;4.10;99.90;;;;;;5014047;28;20190;-69
2021/03/01 05:41:09;;;;;;;15.00;7.32;;;4.20;99.90;;;;;;5031612;28;20256;-69
2021/03/01 05:43:37;;;;;;;22.55;9.85;;;4.30;99.90;;;;;;5031693;28;20197;-69
2021/03/01 05:46:05;;;;;;;9.95;6.30;;;4.20;99.90;;;;;;5031593;28;20216;-70
2021/03/01 05:48:32;;;;;;;11.55;6.65;;;4.20;99.90;;;;;;5031637;28;20561;-69
2021/03/01 05:51:01;;;;;;;9.48;5.55;;;4.20;99.90;;;;;;5031640;28;20181;-69
2021/03/01 05:53:31;;;;;;;15.77;6.88;;;4.20;99.90;;;;;;5031437;28;20177;-69
2021/03/01 05:55:59;;;;;;;14.70;7.45;;;4.30;99.90;;;;;;5031744;28;20271;-72
2021/03/01 05:58:27;;;;;;;11.18;6.78;;;4.40;99.90;;;;;;5033027;28;20189;-70
2021/03/01 06:00:59;;;;;;;12.60;7.72;;;4.40;99.90;;;;;;5032952;28;20197;-68
2021/03/01 06:03:28;;;;;;;13.18;8.73;;;4.40;99.90;;;;;;5033036;28;20201;-69
2021/03/01 06:05:56;;;;;;;19.48;7.57;;;4.40;99.90;;;;;;5031834;28;20209;-68
2021/03/01 06:08:24;;;;;;;10.35;7.18;;;4.30;99.90;;;;;;5032155;28;20646;-69
2021/03/01 06:10:56;;;;;;;11.32;5.43;;;4.30;99.90;;;;;;5031946;28;20189;-72
2021/03/01 06:13:24;;;;;;;9.70;5.90;;;4.30;99.90;;;;;;5032007;28;20178;-69
2021/03/01 06:15:53;;;;;;;16.90;7.82;;;4.40;99.90;;;;;;5031791;28;20202;-68
2021/03/01 06:18:21;;;;;;;12.88;6.85;;;4.30;99.90;;;;;;5032172;28;20190;-69
2021/03/01 06:20:49;;;;;;;12.88;7.40;;;4.30;99.90;;;;;;5031862;28;20197;-70
2021/03/01 06:23:29;;;;;;;13.40;7.97;;;4.30;99.90;;;;;;5032290;28;20248;-69
2021/03/01 06:26:16;;;;;;;12.07;7.25;;;4.40;99.90;;;;;;5032048;28;20267;-70
2021/03/01 06:28:46;;;;;;;25.33;9.40;;;4.40;99.90;;;;;;5031654;28;20616;-71
2021/03/01 06:31:35;;;;;;;13.93;6.65;;;4.60;99.90;;;;;;5031868;28;20189;-67
2021/03/01 06:34:17;;;;;;;16.25;8.95;;;4.60;99.90;;;;;;5031790;28;20497;-69
2021/03/01 06:37:00;;;;;;;12.43;8.30;;;4.60;99.90;;;;;;5013848;28;20212;-72
2021/03/01 06:39:29;;;;;;;18.65;9.00;;;4.70;99.90;;;;;;5031414;28;20181;-70
2021/03/01 06:41:56;;;;;;;21.95;7.28;;;4.70;99.90;;;;;;5031348;28;20566;-70
2021/03/01 06:44:24;;;;;;;14.43;7.25;;;4.70;99.90;;;;;;5031611;28;20589;-70
2021/03/01 06:46:52;;;;;;;15.48;7.05;;;4.70;99.90;;;;;;5031237;28;20244;-68
2021/03/01 06:49:21;;;;;;;12.65;8.60;;;4.80;99.90;;;;;;5031829;28;20197;-70
2021/03/01 06:51:49;;;;;;;21.27;7.75;;;4.90;99.90;;;;;;5031643;28;20193;-71
2021/03/01 06:54:23;;;;;;;9.70;7.43;;;5.00;99.90;;;;;;5031348;28;20177;-68
2021/03/01 06:56:50;;;;;;;12.93;7.53;;;4.90;99.90;;;;;;5031562;28;20209;-71
2021/03/01 06:59:19;;;;;;;16.52;8.80;;;5.00;99.90;;;;;;5031216;28;20182;-70
2021/03/01 07:01:49;;;;;;;16.17;8.18;;;5.10;99.90;;;;;;5030887;28;20182;-70
2021/03/01 07:04:21;;;;;;;12.70;7.60;;;5.10;99.90;;;;;;5031215;28;20204;-71
2021/03/01 07:06:49;;;;;;;12.43;8.48;;;5.20;99.90;;;;;;5031229;28;20613;-71
2021/03/01 07:09:17;;;;;;;15.52;8.43;;;5.20;99.90;;;;;;5031147;28;20174;-70
2021/03/01 07:11:45;;;;;;;18.48;8.70;;;5.20;99.90;;;;;;5031209;28;20197;-70
2021/03/01 07:14:14;;;;;;;13.07;7.85;;;5.20;99.90;;;;;;5013635;28;20189;-69
2021/03/01 07:16:43;;;;;;;12.52;8.52;;;5.20;99.90;;;;;;5013118;28;20283;-71
2021/03/01 07:19:14;;;;;;;12.73;6.90;;;5.20;99.90;;;;;;5031139;28;20208;-71
2021/03/01 07:21:44;;;;;;;19.85;10.35;;;5.30;99.90;;;;;;5031452;28;20181;-70
2021/03/01 07:24:11;;;;;;;11.75;8.10;;;5.30;99.90;;;;;;5030825;28;20300;-68
2021/03/01 07:26:39;;;;;;;11.93;9.13;;;5.30;99.90;;;;;;5031021;28;20730;-68
2021/03/01 07:29:10;;;;;;;13.52;7.85;;;5.30;99.90;;;;;;5031192;28;20185;-68
2021/03/01 07:31:41;;;;;;;14.45;9.02;;;5.40;99.90;;;;;;5032009;28;20269;-69
2021/03/01 07:34:11;;;;;;;10.95;6.45;;;5.50;99.90;;;;;;5031804;28;20189;-68
2021/03/01 07:36:38;;;;;;;16.60;7.80;;;5.50;99.90;;;;;;5031693;28;20753;-70
2021/03/01 07:39:09;;;;;;;9.18;6.93;;;5.70;99.90;;;;;;5031804;28;20190;-69
2021/03/01 07:41:37;;;;;;;12.32;7.47;;;5.80;99.90;;;;;;5032250;28;20201;-68
2021/03/01 07:44:05;;;;;;;11.65;6.10;;;5.80;99.90;;;;;;5033461;28;20611;-70
2021/03/01 07:46:35;;;;;;;14.57;7.97;;;5.90;99.90;;;;;;5033426;28;20205;-70
2021/03/01 07:49:03;;;;;;;17.17;9.93;;;6.00;99.90;;;;;;5033614;28;20186;-69
2021/03/01 07:51:42;;;;;;;11.73;5.95;;;5.90;99.90;;;;;;5033597;28;20185;-68
2021/03/01 07:54:11;;;;;;;15.13;7.97;;;5.90;96.20;;;;;;5033947;28;20201;-69
2021/03/01 07:56:51;;;;;;;10.13;6.78;;;6.00;44.60;;;;;;5034244;28;20639;-70
2021/03/01 07:59:31;;;;;;;12.07;6.18;;;6.20;1.00;;;;;;5016300;28;20567;-70
2021/03/01 08:02:32;;;;;;;15.52;6.18;;;6.20;1.00;;;;;;5033278;28;20189;-69
2021/03/01 08:05:19;;;;;;;17.73;10.05;;;6.20;1.00;;;;;;4953071;29;20199;-70
2021/03/01 08:07:47;;;;;;;15.55;7.63;;;6.20;1.00;;;;;;4953524;29;20286;-69
2021/03/01 08:10:18;;;;;;;11.07;7.30;;;6.30;1.00;;;;;;5001302;28;20264;-69
2021/03/01 08:13:02;;;;;;;15.43;6.85;;;6.40;1.00;;;;;;5034821;28;20173;-67
2021/03/01 08:15:41;;;;;;;13.98;8.98;;;6.40;1.00;;;;;;5033809;28;20261;-68
2021/03/01 08:18:11;;;;;;;8.35;6.18;;;6.40;1.00;;;;;;5031442;28;20182;-70
2021/03/01 08:20:44;;;;;;;14.00;6.95;;;6.40;1.00;;;;;;5030636;28;20174;-70
2021/03/01 08:23:18;;;;;;;10.35;7.20;;;6.40;1.00;;;;;;5030444;28;20190;-70
2021/03/01 08:25:51;;;;;;;14.20;7.15;;;6.50;1.00;;;;;;5030427;28;20581;-70
2021/03/01 08:28:47;;;;;;;12.70;6.75;;;6.50;1.00;;;;;;5013469;28;20568;-69
2021/03/01 08:31:26;;;;;;;12.15;6.95;;;6.50;99.90;;;;;;5033812;28;20215;-67
2021/03/01 08:33:53;;;;;;;9.68;6.75;;;6.60;99.90;;;;;;5034088;28;20239;-69
2021/03/01 08:36:28;;;;;;;7.68;5.65;;;6.50;1.00;;;;;;5034318;28;20219;-70
2021/03/01 08:38:56;;;;;;;12.55;7.40;;;6.60;99.90;;;;;;5034714;28;20194;-70
2021/03/01 08:41:43;;;;;;;10.35;6.70;;;6.80;1.00;;;;;;5034862;28;20197;-68
2021/03/01 08:44:18;;;;;;;14.93;8.13;;;6.80;99.90;;;;;;5034487;28;20197;-68
2021/03/01 08:46:46;;;;;;;10.77;7.30;;;6.80;1.00;;;;;;5034588;28;20208;-71
2021/03/01 08:49:23;;;;;;;11.90;7.40;;;6.70;99.90;;;;;;5034088;28;20235;-70
2021/03/01 08:51:55;;;;;;;12.52;7.20;;;6.80;99.90;;;;;;5034082;28;20260;-72
2021/03/01 08:54:30;;;;;;;11.88;6.85;;;6.80;1.00;;;;;;5016501;28;20208;-72
2021/03/01 08:57:04;;;;;;;14.10;8.23;;;6.80;99.90;;;;;;5034200;28;20236;-72
2021/03/01 08:59:31;;;;;;;12.70;6.90;;;6.90;99.90;;;;;;5034205;28;20216;-70
2021/03/01 09:01:59;;;;;;;17.17;6.97;;;7.00;99.90;;;;;;5034025;28;20197;-72
2021/03/01 09:04:26;;;;;;;12.77;8.02;;;7.00;99.90;;;;;;5034090;28;20209;-71
2021/03/01 09:06:53;;;;;;;15.57;10.68;;;6.90;99.90;;;;;;5033658;28;20729;-70
2021/03/01 09:09:20;;;;;;;13.75;7.90;;;6.90;99.90;;;;;;5033547;28;20643;-72
2021/03/01 09:11:48;;;;;;;12.43;7.10;;;7.00;99.90;;;;;;5016126;28;20190;-69
2021/03/01 09:14:15;;;;;;;12.75;6.88;;;7.00;99.90;;;;;;5033651;28;20194;-72
2021/03/01 09:16:43;;;;;;;13.95;7.28;;;7.00;99.90;;;;;;5033721;28;20789;-72
2021/03/01 09:19:12;;;;;;;11.20;7.88;;;7.10;99.90;;;;;;5033349;28;20181;-72
2021/03/01 09:21:41;;;;;;;8.95;6.55;;;7.20;99.90;;;;;;5034145;28;20197;-72
2021/03/01 09:24:10;;;;;;;11.25;5.95;;;6.90;99.90;;;;;;5033784;28;20312;-72
2021/03/01 09:26:39;;;;;;;9.77;6.82;;;6.60;1.00;;;;;;5033456;28;20267;-73
2021/03/01 09:29:09;;;;;;;12.95;8.15;;;6.50;99.90;;;;;;5015554;28;20208;-72
2021/03/01 09:31:42;;;;;;;16.25;7.75;;;6.40;99.90;;;;;;5033628;28;20193;-71
2021/03/01 09:34:11;;;;;;;15.80;7.68;;;6.70;99.90;;;;;;5033066;28;20190;-71
2021/03/01 09:36:40;;;;;;;15.55;8.27;;;7.00;99.90;;;;;;5033191;28;20216;-72
2021/03/01 09:39:09;;;;;;;11.13;8.77;;;7.30;99.90;;;;;;5033018;28;20181;-73
2021/03/01 09:41:47;;;;;;;12.90;7.70;;;7.40;99.90;;;;;;5015425;28;20623;-71
2021/03/01 09:44:23;;;;;;;10.68;6.88;;;7.20;99.90;;;;;;5032475;28;20690;-72
2021/03/01 09:46:53;;;;;;;11.75;6.93;;;7.10;99.90;;;;;;5032956;28;20219;-71
2021/03/01 09:49:21;;;;;;;11.52;7.50;;;7.20;99.90;;;;;;5032595;28;20185;-71
2021/03/01 09:51:50;;;;;;;9.50;6.95;;;7.40;99.90;;;;;;5032834;28;20201;-70
2021/03/01 09:54:17;;;;;;;13.52;8.45;;;7.50;99.90;;;;;;5032774;28;20236;-72
2021/03/01 09:56:46;;;;;;;11.65;5.65;;;7.70;99.90;;;;;;5032798;28;20728;-69
2021/03/01 09:59:31;;;;;;;11.02;7.40;;;7.70;99.90;;;;;;5032551;28;20244;-72
2021/03/01 10:02:13;;;;;;;13.75;5.90;;;7.90;99.90;;;;;;5032661;28;20859;-72
2021/03/01 10:05:15;;;;;;;11.85;6.40;;;8.30;15.20;;;;;;5171033;27;20587;-72
2021/03/01 10:07:53;;;;;;;9.63;6.78;;;8.20;1.00;;;;;;5150493;27;20250;-71
2021/03/01 10:10:22;;;;;;;12.85;7.97;;;8.10;1.00;;;;;;5149934;27;20203;-71
2021/03/01 10:12:50;;;;;;;11.70;6.30;;;8.00;1.00;;;;;;5150019;27;20209;-71
2021/03/01 10:15:20;;;;;;;14.55;7.50;;;8.00;99.90;;;;;;5150165;27;20185;-70
2021/03/01 10:18:03;;;;;;;13.13;5.95;;;8.10;99.90;;;;;;5150335;27;20272;-70
2021/03/01 10:20:32;;;;;;;10.40;7.15;;;8.20;99.90;;;;;;5150115;27;20188;-71
2021/03/01 10:23:01;;;;;;;11.38;7.05;;;7.80;99.90;;;;;;5150181;27;20589;-70
2021/03/01 10:25:34;;;;;;;13.10;7.65;;;7.60;99.90;;;;;;5149772;27;20170;-71
2021/03/01 10:28:01;;;;;;;15.30;9.18;;;7.80;99.90;;;;;;5145764;27;20217;-70
2021/03/01 10:30:28;;;;;;;18.08;9.43;;;7.90;99.90;;;;;;5151500;27;20623;-70
2021/03/01 10:33:07;;;;;;;10.38;7.57;;;8.10;99.90;;;;;;5160461;27;20185;-70
2021/03/01 10:35:35;;;;;;;19.25;10.95;;;8.30;99.90;;;;;;5162348;27;20568;-72
2021/03/01 10:38:07;;;;;;;13.48;8.32;;;8.70;99.90;;;;;;5170856;27;20185;-72
2021/03/01 10:40:37;;;;;;;11.65;7.10;;;9.20;99.90;;;;;;5166733;27;20193;-72
2021/03/01 10:43:12;;;;;;;13.63;7.97;;;9.40;99.90;;;;;;5149944;27;20189;-71
2021/03/01 10:45:41;;;;;;;10.85;8.70;;;9.40;99.90;;;;;;5149304;27;20224;-71
2021/03/01 10:48:09;;;;;;;11.65;7.60;;;9.30;1.00;;;;;;5149771;27;20186;-70
2021/03/01 10:50:37;;;;;;;11.23;7.30;;;9.10;99.90;;;;;;5148556;27;20646;-71
2021/03/01 10:53:07;;;;;;;20.05;7.90;;;8.80;99.90;;;;;;5138252;27;20209;-71
2021/03/01 10:55:34;;;;;;;13.07;8.15;;;8.70;99.90;;;;;;5154475;27;20200;-71
2021/03/01 10:58:01;;;;;;;13.02;8.35;;;8.30;99.90;;;;;;5153260;27;20201;-71
2021/03/01 11:00:32;;;;;;;14.05;8.02;;;7.80;99.90;;;;;;5170562;27;20637;-70
2021/03/01 11:02:59;;;;;;;12.18;8.90;;;7.20;99.90;;;;;;5169792;27;20705;-71
2021/03/01 11:05:26;;;;;;;16.40;9.07;;;7.10;99.90;;;;;;5169712;27;20200;-71
2021/03/01 11:07:54;;;;;;;21.35;12.25;;;7.20;99.90;;;;;;5161304;27;20181;-71
2021/03/01 11:10:21;;;;;;;12.07;9.18;;;7.50;99.90;;;;;;5169811;27;20195;-71
2021/03/01 11:12:49;;;;;;;17.90;10.88;;;7.90;99.90;;;;;;5169921;27;20185;-70
2021/03/01 11:15:17;;;;;;;12.48;8.80;;;8.20;99.90;;;;;;5163375;27;20190;-71
2021/03/01 11:17:44;;;;;;;14.48;8.98;;;8.40;99.90;;;;;;5155703;27;20181;-71
2021/03/01 11:20:12;;;;;;;11.50;7.85;;;8.40;99.90;;;;;;5154108;27;20193;-70
2021/03/01 11:22:40;;;;;;;12.77;7.88;;;8.30;99.90;;;;;;5150139;27;20180;-69
2021/03/01 11:25:09;;;;;;;22.40;10.90;;;8.20;99.90;;;;;;5135748;27;20224;-70
2021/03/01 11:27:36;;;;;;;15.13;11.48;;;8.30;99.90;;;;;;5135159;27;20225;-70
2021/03/01 11:30:04;;;;;;;17.95;9.98;;;8.40;99.90;;;;;;5135073;27;20193;-70
2021/03/01 11:32:31;;;;;;;13.20;11.57;;;8.20;99.90;;;;;;5134648;27;20536;-70
2021/03/01 11:34:58;;;;;;;19.23;10.80;;;8.20;99.90;;;;;;5133335;27;20416;-70
2021/03/01 11:37:25;;;;;;;16.88;10.25;;;8.30;99.90;;;;;;5134680;27;20210;-70
2021/03/01 11:39:52;;;;;;;12.70;8.27;;;8.40;99.90;;;;;;5134393;27;20234;-70
2021/03/01 11:42:20;;;;;;;16.17;9.68;;;8.40;99.90;;;;;;5134866;27;20182;-70
2021/03/01 11:44:47;;;;;;;15.57;9.73;;;8.40;99.90;;;;;;5134346;27;20194;-69
2021/03/01 11:47:15;;;;;;;15.73;10.10;;;8.20;99.90;;;;;;5134349;27;20202;-70
2021/03/01 11:49:42;;;;;;;14.93;12.15;;;8.20;99.90;;;;;;5134533;27;20206;-70
2021/03/01 11:52:09;;;;;;;11.93;8.23;;;8.00;99.90;;;;;;5135104;27;20205;-71
2021/03/01 11:54:36;;;;;;;16.27;10.55;;;7.90;99.90;;;;;;5134307;27;20193;-71
2021/03/01 11:57:04;;;;;;;16.48;9.20;;;7.80;99.90;;;;;;5136098;27;20202;-70
2021/03/01 11:59:32;;;;;;;12.88;9.40;;;7.60;99.90;;;;;;5152147;27;20194;-70
2021/03/01 12:01:59;;;;;;;16.98;11.07;;;7.70;99.90;;;;;;5135116;27;20265;-70
2021/03/01 12:04:26;;;;;;;15.60;8.07;;;8.10;99.90;;;;;;5155143;27;20286;-70
2021/03/01 12:06:53;;;;;;;19.40;11.13;;;8.20;99.90;;;;;;5155234;27;20544;-69
2021/03/01 12:09:20;;;;;;;17.98;10.60;;;8.10;99.90;;;;;;5133721;27;20251;-68
2021/03/01 12:11:48;;;;;;;12.82;7.80;;;8.30;99.90;;;;;;5134381;27;20204;-68
2021/03/01 12:14:15;;;;;;;10.18;6.60;;;8.30;99.90;;;;;;5134325;27;20251;-68
2021/03/01 12:16:43;;;;;;;9.82;6.90;;;8.60;99.90;;;;;;5141330;27;20546;-69
2021/03/01 12:19:11;;;;;;;12.05;6.28;;;8.60;99.90;;;;;;5153057;27;20626;-68
2021/03/01 12:21:38;;;;;;;9.20;7.70;;;8.70;99.90;;;;;;5154850;27;20197;-73
2021/03/01 12:24:06;;;;;;;9.20;5.75;;;8.70;99.90;;;;;;5154979;27;20614;-71
2021/03/01 12:26:33;;;;;;;10.25;6.95;;;8.90;99.90;;;;;;5153771;27;20205;-71
2021/03/01 12:29:00;;;;;;;9.50;7.45;;;8.90;99.90;;;;;;5154373;27;20193;-72
2021/03/01 12:31:28;;;;;;;14.77;8.32;;;9.00;99.90;;;;;;5154809;27;20216;-71
2021/03/01 12:33:56;;;;;;;11.13;6.95;;;9.00;99.90;;;;;;5154609;27;20584;-73
2021/03/01 12:36:24;;;;;;;12.25;7.10;;;9.10;99.90;;;;;;5154828;27;20207;-70
2021/03/01 12:38:51;;;;;;;11.75;7.13;;;9.10;99.90;;;;;;5154503;27;20189;-71
2021/03/01 12:41:18;;;;;;;14.23;7.45;;;9.00;99.90;;;;;;5152847;27;20721;-71
2021/03/01 12:43:45;;;;;;;11.65;9.23;;;8.90;99.90;;;;;;5154108;27;20201;-71
2021/03/01 12:46:12;;;;;;;12.80;7.90;;;8.90;99.90;;;;;;5154521;27;20231;-80
2021/03/01 12:48:40;;;;;;;8.85;6.53;;;9.10;99.90;;;;;;5128307;27;20708;-73
2021/03/01 12:51:09;;;;;;;8.25;7.30;;;9.10;99.90;;;;;;5111702;28;20195;-74
2021/03/01 12:53:36;;;;;;;11.75;7.70;;;9.20;99.90;;;;;;5112692;28;20187;-73
2021/03/01 12:56:03;;;;;;;11.52;8.45;;;9.10;99.90;;;;;;5112843;27;20214;-73
2021/03/01 12:58:31;;;;;;;12.90;7.35;;;9.20;99.90;;;;;;5112909;28;20270;-74
2021/03/01 13:00:58;;;;;;;15.82;8.30;;;9.30;99.90;;;;;;5112619;28;20521;-74
2021/03/01 13:03:38;;;;;;;14.25;8.15;;;9.10;99.90;;;;;;5112295;28;20221;-73